Time;durP1;ratioP1;P1;durP2;ratioP2;P2;SDS_P1;SDS_P2;PMS_P1;PMS_P2;Temp;Humidity;BMP_temperature;BMP_pressure;BME280_temperature;BME280_humidity;BME280_pressure;Samples;Min_cycle;Max_cycle;Signal;HPM_P1;HPM_P2
2022/05/23 00:00:14;;;;;;;5.77;2.90;;;10.60;99.90;;;;;;5033412;28;20581;-68
2022/05/23 00:02:41;;;;;;;7.20;3.53;;;10.60;99.90;;;;;;5032159;28;20676;-72
2022/05/23 00:05:08;;;;;;;4.90;3.00;;;10.50;99.90;;;;;;5031706;28;20390;-71
2022/05/23 00:07:42;;;;;;;4.50;3.17;;;10.50;99.90;;;;;;5032659;28;20199;-68
2022/05/23 00:10:11;;;;;;;3.77;2.80;;;10.50;99.90;;;;;;5033113;28;20191;-69
2022/05/23 00:12:38;;;;;;;3.93;2.83;;;10.40;99.90;;;;;;5032014;28;20220;-69
2022/05/23 00:15:08;;;;;;;4.80;3.20;;;10.50;99.90;;;;;;5030690;28;20781;-72
2022/05/23 00:17:35;;;;;;;3.93;3.03;;;10.50;99.90;;;;;;5032174;28;20195;-73
2022/05/23 00:20:09;;;;;;;6.67;4.03;;;10.50;99.90;;;;;;5031555;28;20634;-72
2022/05/23 00:22:37;;;;;;;6.00;2.80;;;10.50;99.90;;;;;;5031746;28;20695;-70
2022/05/23 00:25:07;;;;;;;4.70;3.00;;;10.50;99.90;;;;;;5031783;28;20195;-71
2022/05/23 00:27:37;;;;;;;4.13;2.87;;;10.50;99.90;;;;;;5031728;28;20663;-72
2022/05/23 00:30:13;;;;;;;5.30;3.03;;;10.50;99.90;;;;;;5032027;28;20202;-69
2022/05/23 00:35:26;;;;;;;5.07;3.27;;;10.50;99.90;;;;;;5031234;28;20290;-71
2022/05/23 00:37:58;;;;;;;5.73;3.10;;;10.40;99.90;;;;;;5031789;28;20278;-71
2022/05/23 00:40:43;;;;;;;6.13;3.03;;;10.40;99.90;;;;;;5031499;28;20209;-71
2022/05/23 00:43:19;;;;;;;4.67;2.97;;;10.40;99.90;;;;;;5032822;28;20210;-71
2022/05/23 00:45:51;;;;;;;7.87;3.40;;;10.40;99.90;;;;;;5032748;28;20191;-73
2022/05/23 00:48:22;;;;;;;4.20;3.10;;;10.30;99.90;;;;;;5031328;28;20298;-70
2022/05/23 00:50:54;;;;;;;5.97;3.27;;;10.50;99.90;;;;;;5031036;28;20323;-72
2022/05/23 00:53:35;;;;;;;6.20;3.30;;;10.40;99.90;;;;;;5031541;28;20286;-71
2022/05/23 00:56:07;;;;;;;4.90;3.33;;;10.40;99.90;;;;;;5031156;28;20199;-69
2022/05/23 00:58:40;;;;;;;4.73;3.20;;;10.40;99.90;;;;;;5031415;28;20318;-68
2022/05/23 01:01:11;;;;;;;6.07;3.40;;;10.50;99.90;;;;;;5031367;28;20195;-72
2022/05/23 01:03:40;;;;;;;5.10;3.20;;;10.50;99.90;;;;;;5032340;28;20196;-72
2022/05/23 01:06:08;;;;;;;4.43;3.20;;;10.50;99.90;;;;;;5031507;28;20238;-70
2022/05/23 01:08:36;;;;;;;6.33;3.53;;;10.50;99.90;;;;;;5031117;28;20195;-71
2022/05/23 01:11:04;;;;;;;4.17;3.07;;;10.40;99.90;;;;;;5031280;28;20301;-70
2022/05/23 01:13:30;;;;;;;4.87;3.07;;;10.40;99.90;;;;;;5031184;28;20191;-71
2022/05/23 01:15:57;;;;;;;5.40;3.10;;;10.40;99.90;;;;;;5031056;28;20216;-72
2022/05/23 01:18:25;;;;;;;6.90;3.40;;;10.40;99.90;;;;;;5031276;28;20227;-70
2022/05/23 01:20:56;;;;;;;3.80;3.00;;;10.30;99.90;;;;;;5030970;28;20637;-72
2022/05/23 01:23:48;;;;;;;5.83;3.30;;;10.40;99.90;;;;;;5031247;28;20199;-72
2022/05/23 01:26:15;;;;;;;4.77;3.10;;;10.40;99.90;;;;;;5031612;28;20227;-72
2022/05/23 01:28:43;;;;;;;6.07;3.20;;;10.40;99.90;;;;;;5034971;28;20238;-72
2022/05/23 01:31:12;;;;;;;6.77;3.60;;;10.30;99.90;;;;;;5036565;28;20202;-73
2022/05/23 01:33:39;;;;;;;5.60;3.50;;;10.40;99.90;;;;;;5034837;28;20196;-73
2022/05/23 01:36:11;;;;;;;4.97;2.93;;;10.30;99.90;;;;;;5034793;28;20301;-71
2022/05/23 01:38:39;;;;;;;5.57;3.40;;;10.30;99.90;;;;;;5034828;28;20227;-71
2022/05/23 01:41:06;;;;;;;7.27;3.40;;;10.30;99.90;;;;;;5036205;28;20219;-71
2022/05/23 01:43:33;;;;;;;5.50;3.37;;;10.30;99.90;;;;;;5034791;28;20679;-70
2022/05/23 01:46:01;;;;;;;6.47;3.30;;;10.30;99.90;;;;;;5034713;28;20195;-70
2022/05/23 01:48:28;;;;;;;7.93;3.13;;;10.40;99.90;;;;;;5035213;28;20303;-69
2022/05/23 01:50:54;;;;;;;5.63;3.37;;;10.30;99.90;;;;;;5034388;28;20237;-69
2022/05/23 01:53:21;;;;;;;6.37;3.00;;;10.40;99.90;;;;;;5035467;28;20231;-70
2022/05/23 01:55:48;;;;;;;4.17;3.20;;;10.40;99.90;;;;;;5034787;28;20298;-68
2022/05/23 02:01:12;;;;;;;5.60;3.47;;;10.30;99.90;;;;;;5036650;28;20195;-70
2022/05/23 02:01:14;;;;;;;4.90;3.10;;;10.30;99.90;;;;;;5035056;28;20727;-69
2022/05/23 02:03:43;;;;;;;5.10;3.27;;;10.30;99.90;;;;;;5034301;28;20710;-69
2022/05/23 02:06:11;;;;;;;7.00;3.30;;;10.30;99.90;;;;;;5034390;28;20199;-69
2022/05/23 02:08:39;;;;;;;7.10;3.27;;;10.30;99.90;;;;;;5034501;28;20188;-70
2022/05/23 02:11:06;;;;;;;5.40;3.30;;;10.40;99.90;;;;;;5035572;28;20195;-70
2022/05/23 02:13:36;;;;;;;6.30;3.60;;;10.50;99.90;;;;;;5034586;28;20196;-72
2022/05/23 02:16:03;;;;;;;5.20;2.87;;;10.50;99.90;;;;;;5033912;28;20318;-71
2022/05/23 02:18:30;;;;;;;4.43;3.20;;;10.30;99.90;;;;;;5034286;28;20207;-72
2022/05/23 02:20:57;;;;;;;4.70;2.97;;;10.30;99.90;;;;;;5035419;28;20191;-67
2022/05/23 02:23:24;;;;;;;5.53;3.13;;;10.40;99.90;;;;;;5034413;28;20214;-68
2022/05/23 02:25:52;;;;;;;5.33;3.10;;;10.40;99.90;;;;;;5033837;28;20210;-68
2022/05/23 02:28:19;;;;;;;5.40;3.40;;;10.50;99.90;;;;;;5034275;28;20657;-67
2022/05/23 02:30:48;;;;;;;5.80;3.63;;;10.40;99.90;;;;;;5033959;28;20213;-68
2022/05/23 02:33:15;;;;;;;7.57;3.70;;;10.30;99.90;;;;;;5033861;28;20359;-68
2022/05/23 02:35:42;;;;;;;5.00;3.40;;;10.30;99.90;;;;;;5033721;28;20210;-67
2022/05/23 02:38:09;;;;;;;4.93;3.10;;;10.40;99.90;;;;;;5033122;28;20195;-67
2022/05/23 02:40:36;;;;;;;7.33;3.40;;;10.40;99.90;;;;;;5034037;28;20266;-68
2022/05/23 02:43:03;;;;;;;5.90;3.43;;;10.50;99.90;;;;;;5033687;28;20716;-69
2022/05/23 02:45:30;;;;;;;5.73;3.50;;;10.30;99.90;;;;;;5033599;28;20207;-70
2022/05/23 02:47:57;;;;;;;6.43;3.57;;;10.30;99.90;;;;;;5033632;28;20199;-66
2022/05/23 02:50:24;;;;;;;5.47;3.20;;;10.30;99.90;;;;;;5033418;28;20202;-69
2022/05/23 02:52:51;;;;;;;7.83;3.63;;;10.20;99.90;;;;;;5033832;28;20203;-71
2022/05/23 02:55:18;;;;;;;4.70;3.07;;;10.20;99.90;;;;;;5034817;28;20318;-70
2022/05/23 02:57:45;;;;;;;5.63;3.67;;;10.30;99.90;;;;;;5033701;28;20206;-66
2022/05/23 03:00:12;;;;;;;3.97;3.37;;;10.30;99.90;;;;;;5033279;28;20338;-69
2022/05/23 03:05:24;;;;;;;6.60;3.47;;;10.40;99.90;;;;;;5033260;28;20199;-70
2022/05/23 03:07:51;;;;;;;6.00;3.60;;;10.40;99.90;;;;;;5033292;28;20210;-72
2022/05/23 03:10:18;;;;;;;6.20;3.10;;;10.30;99.90;;;;;;5033697;28;20715;-69
2022/05/23 03:12:45;;;;;;;4.80;3.27;;;10.30;99.90;;;;;;5034239;28;20217;-72
2022/05/23 03:15:12;;;;;;;9.43;3.40;;;10.40;99.90;;;;;;5033329;28;20722;-71
2022/05/23 03:17:40;;;;;;;5.70;3.80;;;10.40;99.90;;;;;;5032830;28;20223;-68
2022/05/23 03:20:08;;;;;;;5.67;3.60;;;10.50;99.90;;;;;;5032771;28;20261;-70
2022/05/23 03:28:06;;;;;;;8.67;4.00;;;10.70;99.90;;;;;;5034272;28;20192;-71
2022/05/23 03:30:34;;;;;;;6.83;3.70;;;10.70;99.90;;;;;;5032671;28;20230;-69
2022/05/23 03:33:01;;;;;;;9.73;3.90;;;10.70;99.90;;;;;;5032927;28;20195;-70
2022/05/23 03:35:30;;;;;;;5.73;3.73;;;10.70;99.90;;;;;;5032722;28;20240;-69
2022/05/23 03:37:58;;;;;;;5.20;3.27;;;10.70;99.90;;;;;;5032757;28;20196;-69
2022/05/23 03:40:25;;;;;;;6.07;3.53;;;10.80;99.90;;;;;;5032780;28;20230;-70
2022/05/23 03:42:52;;;;;;;5.57;3.50;;;10.80;99.90;;;;;;5032549;28;20210;-71
2022/05/23 03:45:19;;;;;;;5.80;3.43;;;10.80;99.90;;;;;;5032757;28;20672;-70
2022/05/23 03:47:48;;;;;;;6.13;3.40;;;10.90;99.90;;;;;;5032402;28;20565;-70
2022/05/23 03:50:16;;;;;;;5.33;3.77;;;10.90;99.90;;;;;;5032699;28;20200;-69
2022/05/23 03:52:44;;;;;;;6.23;3.70;;;10.90;99.90;;;;;;5032384;28;20310;-71
2022/05/23 03:55:11;;;;;;;6.47;3.40;;;10.90;99.90;;;;;;5032117;28;20195;-68
2022/05/23 03:57:37;;;;;;;6.20;4.00;;;10.80;99.90;;;;;;5032485;28;20226;-70
2022/05/23 04:00:07;;;;;;;5.63;3.40;;;10.80;99.90;;;;;;5032053;28;20293;-69
2022/05/23 04:02:35;;;;;;;9.83;3.90;;;10.70;99.90;;;;;;5033669;28;20275;-70
2022/05/23 04:05:02;;;;;;;5.67;3.30;;;10.70;99.90;;;;;;5031764;28;20246;-70
2022/05/23 04:07:28;;;;;;;5.93;3.37;;;10.70;99.90;;;;;;5032047;28;20196;-69
2022/05/23 04:09:55;;;;;;;7.50;3.70;;;10.80;99.90;;;;;;5033109;28;20226;-69
2022/05/23 04:12:22;;;;;;;6.00;3.47;;;11.00;99.90;;;;;;5033015;28;20195;-69
2022/05/23 04:14:49;;;;;;;7.23;3.93;;;11.10;99.90;;;;;;5032160;28;20314;-68
2022/05/23 04:17:16;;;;;;;6.70;3.77;;;11.10;99.90;;;;;;5031738;28;20203;-70
2022/05/23 04:19:43;;;;;;;8.03;4.00;;;11.10;99.90;;;;;;5031793;28;20277;-71
2022/05/23 04:22:10;;;;;;;7.33;3.77;;;11.20;99.90;;;;;;5032951;28;20241;-68
2022/05/23 04:24:37;;;;;;;8.23;4.13;;;11.30;99.90;;;;;;5031708;28;20207;-72
2022/05/23 04:27:04;;;;;;;9.67;4.10;;;11.40;99.90;;;;;;5031473;28;20286;-71
2022/05/23 04:29:31;;;;;;;10.23;4.20;;;11.40;99.90;;;;;;5031678;28;20204;-68
2022/05/23 04:31:58;;;;;;;8.63;4.40;;;11.40;99.90;;;;;;5031452;28;20601;-70
2022/05/23 04:37:10;;;;;;;5.93;3.60;;;11.40;99.90;;;;;;5032718;28;20195;-68
2022/05/23 04:39:37;;;;;;;8.60;4.17;;;11.40;99.90;;;;;;5031272;28;20223;-68
2022/05/23 04:42:05;;;;;;;5.27;3.40;;;11.40;99.90;;;;;;5031846;28;20199;-68
2022/05/23 04:44:32;;;;;;;8.90;4.40;;;11.40;99.90;;;;;;5031100;28;20231;-69
2022/05/23 04:49:50;;;;;;;7.47;3.90;;;11.20;99.90;;;;;;5031160;28;20294;-69
2022/05/23 04:52:19;;;;;;;8.67;4.37;;;11.20;99.90;;;;;;5031080;28;20302;-69
2022/05/23 04:54:47;;;;;;;7.57;3.87;;;11.40;99.90;;;;;;5031278;28;20205;-68
2022/05/23 04:57:14;;;;;;;5.73;3.83;;;11.30;99.90;;;;;;5032235;28;20190;-72
2022/05/23 04:59:41;;;;;;;8.30;4.03;;;11.50;99.90;;;;;;5030839;28;20807;-70
2022/05/23 05:02:08;;;;;;;9.27;4.13;;;11.60;99.90;;;;;;5030894;28;20199;-73
2022/05/23 05:04:36;;;;;;;9.13;4.20;;;11.40;99.90;;;;;;5032304;28;20196;-70
2022/05/23 05:07:03;;;;;;;9.17;4.33;;;11.60;99.90;;;;;;5030940;28;20231;-69
2022/05/23 05:09:33;;;;;;;7.07;3.90;;;11.70;99.90;;;;;;5030762;28;20286;-71
2022/05/23 05:12:00;;;;;;;6.80;3.67;;;11.90;99.90;;;;;;5031026;28;20214;-70
2022/05/23 05:14:27;;;;;;;6.33;3.73;;;12.10;99.90;;;;;;5031976;28;20271;-69
2022/05/23 05:16:54;;;;;;;5.87;3.87;;;12.00;99.90;;;;;;5031403;28;20544;-71
2022/05/23 05:19:21;;;;;;;7.60;4.03;;;12.10;99.90;;;;;;5031235;28;20311;-69
2022/05/23 05:21:49;;;;;;;5.83;3.30;;;12.10;99.90;;;;;;5030730;28;20622;-69
2022/05/23 05:24:17;;;;;;;6.60;3.57;;;12.10;99.90;;;;;;5032076;28;20249;-71
2022/05/23 05:26:44;;;;;;;7.20;3.70;;;12.20;99.90;;;;;;5030744;28;20611;-70
2022/05/23 05:29:11;;;;;;;9.20;3.30;;;12.40;99.90;;;;;;5031023;28;20203;-71
2022/05/23 05:31:50;;;;;;;6.47;3.47;;;12.50;99.90;;;;;;5030852;28;20554;-70
2022/05/23 05:34:28;;;;;;;5.13;3.50;;;12.50;99.90;;;;;;5030463;28;20203;-71
2022/05/23 05:37:02;;;;;;;6.53;3.30;;;12.50;99.90;;;;;;5032104;28;20183;-72
2022/05/23 05:39:31;;;;;;;8.10;3.20;;;12.50;99.90;;;;;;5030490;28;20267;-71
2022/05/23 05:42:13;;;;;;;5.33;3.27;;;12.50;99.90;;;;;;5030808;28;20209;-71
2022/05/23 05:44:49;;;;;;;5.90;3.20;;;12.50;99.90;;;;;;5030805;28;20286;-70
2022/05/23 05:47:19;;;;;;;7.30;3.23;;;12.40;99.90;;;;;;5031865;28;20253;-72
2022/05/23 05:49:58;;;;;;;5.97;3.03;;;12.40;99.90;;;;;;5031188;28;20199;-72
2022/05/23 05:52:29;;;;;;;6.17;3.30;;;12.40;99.90;;;;;;5030831;28;20704;-72
2022/05/23 05:54:57;;;;;;;6.97;3.07;;;12.40;99.90;;;;;;5030614;28;20575;-69
2022/05/23 05:57:24;;;;;;;4.83;2.93;;;12.40;99.90;;;;;;5030811;28;20200;-68
2022/05/23 05:59:52;;;;;;;4.67;3.03;;;12.60;99.90;;;;;;5030232;28;20314;-67
2022/05/23 06:02:18;;;;;;;6.90;3.50;;;12.80;99.90;;;;;;5030874;28;20230;-67
2022/05/23 06:04:46;;;;;;;5.33;3.20;;;12.90;99.90;;;;;;5031735;28;20670;-70
2022/05/23 06:13:05;;;;;;;6.70;3.60;;;13.00;99.90;;;;;;5050941;28;20573;-69
2022/05/23 06:15:32;;;;;;;6.07;3.10;;;13.10;99.90;;;;;;5053907;28;20280;-69
2022/05/23 06:17:59;;;;;;;5.50;3.17;;;13.30;99.90;;;;;;5054362;28;20219;-73
2022/05/23 06:20:26;;;;;;;4.53;3.27;;;13.30;99.90;;;;;;5053927;28;20211;-72
2022/05/23 06:22:53;;;;;;;6.63;3.57;;;13.30;99.90;;;;;;5054229;28;20203;-68
2022/05/23 06:25:21;;;;;;;5.23;3.23;;;13.40;99.90;;;;;;5053549;28;20249;-69
2022/05/23 06:27:48;;;;;;;5.50;3.30;;;13.40;99.90;;;;;;5054111;28;20238;-70
2022/05/23 06:30:17;;;;;;;15.60;3.50;;;13.40;99.90;;;;;;5051919;28;20561;-68
2022/05/23 06:32:44;;;;;;;6.77;3.77;;;13.50;99.90;;;;;;5043969;28;20286;-70
2022/05/23 06:35:11;;;;;;;7.73;3.20;;;13.60;99.90;;;;;;5033695;28;20291;-69
2022/05/23 06:37:40;;;;;;;5.83;3.40;;;13.80;99.90;;;;;;5033654;28;20250;-69
2022/05/23 06:40:09;;;;;;;7.60;3.40;;;13.90;99.90;;;;;;5033863;28;20238;-69
2022/05/23 06:42:37;;;;;;;7.00;3.43;;;13.90;99.90;;;;;;5033629;28;20303;-70
2022/05/23 06:45:06;;;;;;;6.83;3.17;;;14.10;99.90;;;;;;5033737;28;20225;-70
2022/05/23 06:47:33;;;;;;;6.40;3.27;;;14.10;99.90;;;;;;5033757;28;20223;-70
2022/05/23 06:50:00;;;;;;;8.47;3.53;;;14.30;99.90;;;;;;5033144;28;20206;-70
2022/05/23 06:52:27;;;;;;;7.27;3.40;;;14.40;99.90;;;;;;5036825;28;20200;-69
2022/05/23 06:54:54;;;;;;;6.90;3.90;;;14.60;99.90;;;;;;5063024;28;20314;-69
2022/05/23 06:57:29;;;;;;;5.50;3.50;;;14.70;99.90;;;;;;5064336;28;20202;-70
2022/05/23 06:59:56;;;;;;;8.80;3.40;;;14.70;99.90;;;;;;5043407;28;20231;-67
2022/05/23 07:02:24;;;;;;;4.83;3.30;;;14.60;99.90;;;;;;5051386;28;20240;-67
2022/05/23 07:13:07;;;;;;;8.47;3.50;;;15.10;99.90;;;;;;5045861;28;20294;-67
2022/05/23 07:15:37;;;;;;;13.13;4.20;;;14.90;99.90;;;;;;5032387;28;20214;-67
2022/05/23 07:18:04;;;;;;;7.80;3.80;;;14.80;99.90;;;;;;5045114;28;20257;-67
2022/05/23 07:20:32;;;;;;;6.70;3.50;;;14.80;99.90;;;;;;5020515;28;20322;-66
2022/05/23 07:22:58;;;;;;;7.60;3.80;;;15.00;99.90;;;;;;5044629;28;20652;-67
2022/05/23 07:25:25;;;;;;;6.37;3.70;;;15.00;99.90;;;;;;5040628;28;20201;-66
2022/05/23 07:27:52;;;;;;;7.03;3.73;;;15.20;99.90;;;;;;5040894;28;20187;-67
2022/05/23 07:30:21;;;;;;;7.87;3.77;;;15.20;99.90;;;;;;5037602;28;20220;-66
2022/05/23 07:32:49;;;;;;;9.47;3.40;;;15.30;99.90;;;;;;5052248;28;20664;-69
2022/05/23 07:35:17;;;;;;;4.93;3.40;;;15.50;99.90;;;;;;5043664;28;20285;-69
2022/05/23 07:37:44;;;;;;;8.87;3.20;;;15.70;99.90;;;;;;5035455;28;20297;-69
2022/05/23 07:40:12;;;;;;;7.83;3.60;;;15.80;99.90;;;;;;5032235;28;20222;-72
2022/05/23 07:42:44;;;;;;;5.90;3.53;;;15.90;99.90;;;;;;5033163;28;20209;-71
2022/05/23 07:45:12;;;;;;;6.47;3.70;;;16.00;99.90;;;;;;5035248;28;20199;-70
2022/05/23 07:47:39;;;;;;;6.00;3.60;;;15.90;99.90;;;;;;5043709;28;20636;-71
2022/05/23 07:50:08;;;;;;;7.93;3.30;;;15.80;99.90;;;;;;5042972;28;20600;-77
2022/05/23 07:52:35;;;;;;;5.83;3.30;;;15.70;99.90;;;;;;5032583;28;20206;-71
2022/05/23 08:00:38;;;;;;;7.97;4.00;;;15.40;99.90;;;;;;5044117;28;20235;-71
2022/05/23 08:03:14;;;;;;;10.37;4.63;;;15.60;99.90;;;;;;5046929;28;20297;-73
2022/05/23 08:05:42;;;;;;;9.13;4.70;;;15.60;99.90;;;;;;5051433;28;20721;-72
2022/05/23 08:08:09;;;;;;;8.33;4.10;;;15.80;99.90;;;;;;5052670;28;20656;-71
2022/05/23 08:10:36;;;;;;;6.63;4.00;;;16.00;99.90;;;;;;5038284;28;20193;-71
2022/05/23 08:13:09;;;;;;;11.70;3.40;;;16.00;99.90;;;;;;5050931;28;20191;-71
2022/05/23 08:15:38;;;;;;;7.63;3.27;;;16.30;99.90;;;;;;5052349;28;20207;-73
2022/05/23 08:18:10;;;;;;;5.67;2.87;;;16.50;99.90;;;;;;5052574;28;20237;-73
2022/05/23 08:20:38;;;;;;;10.60;3.43;;;17.40;99.90;;;;;;5051132;28;20230;-74
2022/05/23 08:23:05;;;;;;;6.67;3.07;;;18.40;99.90;;;;;;5052767;28;20664;-73
2022/05/23 08:29:59;;;;;;;3.73;2.87;;;19.60;99.90;;;;;;4950878;28;20285;-74
2022/05/23 08:33:13;;;;;;;7.60;3.13;;;20.00;99.90;;;;;;4900033;28;20209;-78
2022/05/23 08:35:40;;;;;;;6.27;3.23;;;20.50;99.90;;;;;;4963549;28;20208;-75
2022/05/23 08:38:12;;;;;;;5.90;3.27;;;20.80;99.90;;;;;;4971470;28;20271;-73
2022/05/23 08:41:04;;;;;;;8.63;2.85;;;20.90;99.90;;;;;;4958830;28;20231;-75
2022/05/23 08:43:49;;;;;;;5.27;3.27;;;21.60;99.80;;;;;;4991469;28;20232;-75
2022/05/23 08:46:39;;;;;;;3.85;3.17;;;21.80;97.50;;;;;;4937362;29;20199;-77
2022/05/23 08:49:23;;;;;;;4.20;3.10;;;21.20;95.50;;;;;;4959250;28;20301;-73
2022/05/23 08:51:59;;;;;;;6.20;2.90;;;21.40;94.90;;;;;;4977519;28;20201;-78
2022/05/23 08:54:42;;;;;;;4.30;2.90;;;21.20;96.00;;;;;;4961806;28;20283;-74
2022/05/23 08:57:29;;;;;;;3.88;2.70;;;21.60;96.00;;;;;;4992685;28;20616;-73
2022/05/23 09:00:01;;;;;;;5.60;2.60;;;21.60;93.80;;;;;;4975447;28;20685;-73
2022/05/23 09:02:48;;;;;;;4.13;2.65;;;21.50;93.10;;;;;;4975741;28;20293;-78
2022/05/23 09:05:20;;;;;;;4.73;2.93;;;21.80;92.20;;;;;;4954963;28;20198;-77
2022/05/23 09:08:12;;;;;;;3.80;2.60;;;21.70;90.80;;;;;;4956457;29;20198;-75
2022/05/23 09:10:57;;;;;;;6.50;2.50;;;21.60;91.30;;;;;;4960724;28;20236;-73
2022/05/23 09:13:27;;;;;;;4.13;2.40;;;22.10;92.90;;;;;;4956769;28;20202;-77
2022/05/23 09:15:59;;;;;;;3.45;2.13;;;22.40;90.40;;;;;;4959318;29;20233;-75
2022/05/23 09:18:44;;;;;;;3.17;2.10;;;22.50;90.20;;;;;;4956103;28;20225;-77
2022/05/23 09:21:11;;;;;;;6.20;2.13;;;22.70;90.50;;;;;;4952515;28;20222;-73
2022/05/23 09:23:47;;;;;;;5.70;2.60;;;23.40;87.10;;;;;;4955687;28;20207;-76
2022/05/23 09:26:20;;;;;;;2.80;2.10;;;23.50;82.90;;;;;;4962043;28;20243;-75
2022/05/23 09:28:51;;;;;;;6.72;2.53;;;23.50;83.50;;;;;;4995557;28;20188;-78
2022/05/23 09:31:44;;;;;;;6.53;2.50;;;23.70;83.20;;;;;;4986665;28;20209;-76
2022/05/23 09:34:44;;;;;;;4.43;2.30;;;23.60;79.80;;;;;;4976464;28;20613;-76
2022/05/23 09:37:19;;;;;;;5.50;2.50;;;23.20;78.80;;;;;;4986113;28;20213;-74
2022/05/23 09:39:54;;;;;;;3.07;2.30;;;22.80;81.40;;;;;;4973588;28;20190;-73
2022/05/23 09:48:21;;;;;;;4.13;2.40;;;21.50;83.20;;;;;;4972821;28;20707;-71
2022/05/23 09:51:05;;;;;;;4.27;2.50;;;21.60;87.50;;;;;;4980672;28;20674;-72
2022/05/23 09:53:46;;;;;;;3.30;2.27;;;21.30;85.00;;;;;;4985429;28;20327;-71
2022/05/23 09:56:34;;;;;;;3.57;2.37;;;21.70;84.80;;;;;;4975728;28;20300;-72
2022/05/23 09:59:18;;;;;;;3.73;2.53;;;22.10;85.10;;;;;;4975585;28;20201;-72
2022/05/23 10:01:46;;;;;;;4.63;2.40;;;22.40;84.00;;;;;;4977020;28;20224;-73
2022/05/23 10:04:21;;;;;;;3.13;1.87;;;21.90;82.60;;;;;;4975491;28;20233;-73
2022/05/23 10:06:51;;;;;;;3.10;2.30;;;22.10;82.10;;;;;;4975564;28;20300;-72
2022/05/23 10:09:35;;;;;;;2.67;2.13;;;21.80;82.80;;;;;;4976547;28;20674;-72
2022/05/23 10:12:07;;;;;;;4.57;2.00;;;21.80;81.40;;;;;;4975392;28;20201;-73
2022/05/23 10:14:49;;;;;;;6.27;2.40;;;21.40;82.90;;;;;;4975558;28;20224;-70
2022/05/23 10:17:30;;;;;;;5.77;2.23;;;21.50;86.20;;;;;;4975516;28;20290;-77
2022/05/23 10:20:25;;;;;;;6.37;2.30;;;21.50;83.20;;;;;;4975546;28;20297;-77
2022/05/23 10:23:04;;;;;;;7.87;2.57;;;21.50;85.20;;;;;;4975973;28;20197;-77
2022/05/23 10:25:37;;;;;;;5.90;2.23;;;21.50;86.30;;;;;;4976126;28;20623;-77
2022/05/23 10:28:13;;;;;;;6.47;2.47;;;22.10;85.30;;;;;;4993535;28;20256;-77
2022/05/23 10:30:47;;;;;;;5.57;2.63;;;22.90;80.00;;;;;;4994293;28;20311;-78
2022/05/23 10:33:15;;;;;;;2.47;2.08;;;23.50;74.90;;;;;;4994863;28;20670;-77
2022/05/23 10:36:19;;;;;;;3.03;2.20;;;23.70;76.30;;;;;;4994358;28;20726;-77
2022/05/23 10:44:41;;;;;;;3.80;2.07;;;23.60;72.00;;;;;;4961001;28;20750;-77
2022/05/23 10:47:35;;;;;;;4.40;1.90;;;23.20;72.70;;;;;;4974078;28;20208;-77
2022/05/23 10:50:22;;;;;;;4.90;2.40;;;23.20;74.50;;;;;;4974115;28;20695;-78
2022/05/23 10:52:58;;;;;;;5.97;2.40;;;23.20;74.70;;;;;;4957765;28;20630;-76
2022/05/23 10:55:42;;;;;;;3.07;2.20;;;23.10;74.10;;;;;;4957920;28;20762;-76
2022/05/23 10:58:11;;;;;;;4.13;2.10;;;22.80;73.50;;;;;;4958136;28;20276;-75
2022/05/23 11:00:41;;;;;;;4.67;2.30;;;22.60;74.30;;;;;;4957155;28;20289;-71
2022/05/23 11:03:36;;;;;;;4.72;2.10;;;22.70;73.90;;;;;;4957781;28;20296;-76
2022/05/23 11:06:18;;;;;;;4.35;2.10;;;23.20;74.30;;;;;;4955203;28;20201;-73
2022/05/23 11:09:03;;;;;;;4.27;2.10;;;24.20;72.10;;;;;;4957319;28;20209;-71
2022/05/23 11:11:39;;;;;;;5.20;2.37;;;22.80;71.50;;;;;;4973369;28;20240;-69
2022/05/23 11:14:21;;;;;;;4.30;2.20;;;22.90;72.80;;;;;;4975465;28;20216;-71
2022/05/23 11:16:57;;;;;;;4.15;2.30;;;23.60;72.10;;;;;;4993438;28;20251;-71
2022/05/23 11:19:32;;;;;;;4.97;2.10;;;24.50;67.90;;;;;;4993641;28;20207;-70
2022/05/23 11:22:12;;;;;;;8.20;2.42;;;25.00;65.70;;;;;;4993737;28;20311;-71
2022/05/23 11:24:59;;;;;;;3.17;2.00;;;25.10;65.70;;;;;;4993768;28;20256;-71
2022/05/23 11:35:59;;;;;;;4.55;2.20;;;23.90;66.00;;;;;;4993375;28;20193;-71
2022/05/23 11:38:28;;;;;;;3.90;2.13;;;23.70;67.20;;;;;;4994500;28;20197;-71
2022/05/23 11:41:08;;;;;;;3.58;2.10;;;23.70;71.50;;;;;;4994816;28;20686;-71
2022/05/23 11:43:35;;;;;;;4.72;2.20;;;23.60;66.40;;;;;;4993379;28;20247;-70
2022/05/23 11:46:11;;;;;;;3.73;2.03;;;23.50;68.70;;;;;;4992909;28;20223;-70
2022/05/23 11:48:41;;;;;;;2.80;2.10;;;23.60;70.00;;;;;;5026346;28;20208;-70
2022/05/23 11:51:25;;;;;;;4.15;2.28;;;23.40;67.80;;;;;;4993188;28;20208;-71
2022/05/23 11:54:01;;;;;;;3.53;1.73;;;23.20;69.40;;;;;;4992807;28;20299;-71
2022/05/23 11:56:40;;;;;;;3.92;1.90;;;22.90;70.50;;;;;;4993116;28;20193;-71
2022/05/23 11:59:10;;;;;;;5.70;2.40;;;22.80;71.40;;;;;;4993160;28;20300;-70
2022/05/23 12:01:38;;;;;;;3.83;2.30;;;22.40;69.50;;;;;;5009273;28;20236;-69
2022/05/23 12:04:05;;;;;;;3.27;2.20;;;22.10;71.00;;;;;;4993052;28;20239;-69
2022/05/23 12:06:32;;;;;;;7.50;2.37;;;22.20;73.30;;;;;;4992931;28;20201;-69
2022/05/23 12:08:59;;;;;;;2.63;1.90;;;22.10;72.10;;;;;;4993005;28;20295;-69
2022/05/23 12:11:32;;;;;;;3.23;2.10;;;22.10;74.70;;;;;;4992909;28;20239;-69
2022/05/23 12:14:11;;;;;;;5.43;2.40;;;22.10;75.50;;;;;;4993009;28;20678;-69
2022/05/23 12:16:57;;;;;;;4.97;2.20;;;22.00;74.00;;;;;;4992495;28;20193;-69
2022/05/23 12:19:27;;;;;;;7.20;2.17;;;21.90;73.20;;;;;;4993861;28;20622;-69
2022/05/23 12:22:13;;;;;;;6.63;2.63;;;21.70;72.90;;;;;;4993825;28;20307;-69
2022/05/23 12:25:09;;;;;;;4.37;2.03;;;22.00;74.20;;;;;;4992552;28;20205;-69
2022/05/23 12:28:03;;;;;;;3.17;2.07;;;22.40;72.60;;;;;;5008910;28;20339;-68
2022/05/23 12:30:41;;;;;;;3.27;2.13;;;22.60;69.70;;;;;;4985444;28;20204;-71
2022/05/23 12:33:19;;;;;;;3.80;2.07;;;22.60;70.20;;;;;;4992761;28;20213;-70
2022/05/23 12:35:57;;;;;;;2.07;1.87;;;22.90;70.30;;;;;;4993569;28;20192;-71
2022/05/23 12:38:48;;;;;;;5.00;2.10;;;23.20;69.30;;;;;;4992140;28;20204;-71
2022/05/23 12:41:30;;;;;;;3.60;2.27;;;23.20;68.70;;;;;;4993132;28;20204;-69
2022/05/23 12:44:22;;;;;;;5.67;1.97;;;22.90;69.00;;;;;;4992415;28;20205;-69
2022/05/23 12:46:58;;;;;;;4.27;2.00;;;23.70;68.10;;;;;;4992028;28;20247;-69
2022/05/23 12:49:40;;;;;;;8.00;2.43;;;24.10;65.20;;;;;;4991925;28;20227;-70
2022/05/23 12:52:16;;;;;;;3.13;1.93;;;24.00;64.20;;;;;;5025187;28;20232;-71
2022/05/23 12:55:08;;;;;;;6.40;2.22;;;23.60;65.10;;;;;;4991988;28;20291;-76
2022/05/23 12:58:13;;;;;;;3.30;2.13;;;24.50;66.70;;;;;;4993159;28;20193;-76
2022/05/23 13:00:42;;;;;;;2.92;2.10;;;25.20;63.00;;;;;;5025181;28;20259;-75
2022/05/23 13:03:40;;;;;;;4.53;2.20;;;24.60;61.40;;;;;;4992092;28;20268;-70
2022/05/23 13:06:26;;;;;;;3.17;2.13;;;24.60;61.60;;;;;;4991981;28;20204;-76
2022/05/23 13:09:00;;;;;;;4.97;2.17;;;24.00;62.80;;;;;;4992068;28;20271;-70
2022/05/23 13:11:36;;;;;;;4.90;2.65;;;24.60;62.00;;;;;;4992087;28;20650;-71
2022/05/23 13:14:03;;;;;;;3.53;2.20;;;25.50;59.70;;;;;;4991750;28;20571;-70
2022/05/23 13:16:37;;;;;;;3.47;2.00;;;25.70;57.90;;;;;;5024449;28;20646;-69
2022/05/23 13:22:08;;;;;;;5.03;2.15;;;26.40;56.90;;;;;;4991864;28;20263;-69
2022/05/23 13:24:52;;;;;;;5.90;2.53;;;27.10;57.00;;;;;;4995830;28;20264;-73
2022/05/23 13:27:26;;;;;;;3.17;2.13;;;27.70;55.50;;;;;;4995987;28;20224;-71
2022/05/23 13:29:56;;;;;;;3.50;2.35;;;27.50;54.70;;;;;;4995868;28;20728;-75
2022/05/23 13:32:26;;;;;;;5.57;2.40;;;26.50;56.60;;;;;;4999083;28;20625;-76
2022/05/23 13:34:55;;;;;;;5.10;2.42;;;27.00;55.10;;;;;;4995503;28;20236;-76
2022/05/23 13:37:36;;;;;;;2.83;2.28;;;26.80;54.10;;;;;;4996370;28;20248;-74
2022/05/23 13:40:15;;;;;;;3.80;2.10;;;26.90;55.50;;;;;;4995844;28;20255;-74
2022/05/23 13:42:42;;;;;;;4.15;1.92;;;27.40;54.80;;;;;;4995695;28;20709;-71
2022/05/23 13:45:23;;;;;;;2.88;2.10;;;28.20;54.40;;;;;;4995742;28;20192;-71
2022/05/23 13:47:59;;;;;;;3.97;2.20;;;28.00;53.00;;;;;;4995445;28;20197;-70
2022/05/23 13:50:33;;;;;;;3.83;2.10;;;28.40;53.00;;;;;;4995332;28;20246;-70
2022/05/23 13:53:08;;;;;;;5.18;2.00;;;28.60;52.60;;;;;;5028140;28;20200;-75
2022/05/23 13:55:45;;;;;;;5.18;2.10;;;28.60;52.00;;;;;;4996619;28;20188;-70
2022/05/23 13:58:24;;;;;;;2.67;2.10;;;28.30;51.80;;;;;;4996534;28;20193;-71
2022/05/23 14:01:16;;;;;;;3.47;2.08;;;27.60;52.10;;;;;;4995195;28;20204;-72
2022/05/23 14:03:46;;;;;;;3.58;2.13;;;28.10;52.20;;;;;;4995142;28;20243;-72
2022/05/23 14:06:25;;;;;;;3.60;2.10;;;27.80;52.30;;;;;;4995213;28;20221;-74
2022/05/23 14:08:57;;;;;;;2.50;1.77;;;28.60;52.40;;;;;;4995157;28;20300;-72
2022/05/23 14:11:28;;;;;;;4.15;2.00;;;29.50;51.60;;;;;;5027561;28;20204;-72
2022/05/23 14:14:11;;;;;;;4.80;2.00;;;29.60;48.70;;;;;;4996313;28;20201;-69
2022/05/23 14:16:40;;;;;;;3.35;2.08;;;29.60;48.00;;;;;;4996535;28;20200;-73